Terminal Aerodrome Forecast
Issued by NWS Duluth, MN

Home | Current Version | Previous Version | Text Only | Print | Product List | Glossary On
Versions: 1 2 3 4 5 6 7 8 9 10 11 12 13 14 15 16 17 18 19 20 21 22 23 24 25 26 27
000
FTUS43 KDLH 241053 AAC
TAFDLH
TAF AMD
KDLH 241053Z 2411/2506 VRB04KT 1/4SM FG VV002
      TEMPO 2411/2412 1/2SM FG OVC002
     FM241200 16004KT P6SM SCT004
      TEMPO 2412/2413 1SM BR BKN002
     FM241600 18008KT P6SM FEW050
     FM250100 13006KT P6SM SCT250=

USA.gov is the U.S. government's official web portal to all federal, state and local government web resources and services.